Time;durP1;ratioP1;P1;durP2;ratioP2;P2;SDS_P1;SDS_P2;PMS_P1;PMS_P2;Temp;Humidity;BMP_temperature;BMP_pressure;BME280_temperature;BME280_humidity;BME280_pressure;Samples;Min_cycle;Max_cycle;Signal;HPM_P1;HPM_P2
2024/01/21 00:01:23;;;;;;;4.53;1.60;;;0.20;99.90;;;;;;7344986;32;20232;-55
2024/01/21 00:05:25;;;;;;;5.37;1.87;;;0.40;99.90;;;;;;7329400;32;20112;-55
2024/01/21 00:09:28;;;;;;;5.05;2.00;;;0.40;99.90;;;;;;7342982;32;20120;-53
2024/01/21 00:13:30;;;;;;;4.68;2.20;;;0.40;99.90;;;;;;7330332;32;20218;-54
2024/01/21 00:17:32;;;;;;;3.62;2.10;;;0.50;99.90;;;;;;7337792;32;20297;-54
2024/01/21 00:21:34;;;;;;;3.75;1.90;;;0.40;99.90;;;;;;7338676;32;20163;-55
2024/01/21 00:25:35;;;;;;;2.97;1.77;;;0.40;99.90;;;;;;7344945;32;20681;-55
2024/01/21 00:29:37;;;;;;;4.00;2.10;;;0.50;99.90;;;;;;7339289;32;20167;-55
2024/01/21 00:33:39;;;;;;;3.97;1.83;;;0.60;99.90;;;;;;7343193;32;20391;-54
2024/01/21 00:37:41;;;;;;;4.80;2.08;;;0.50;99.90;;;;;;7343874;32;20121;-55
2024/01/21 00:41:43;;;;;;;3.67;1.98;;;0.60;99.90;;;;;;7340593;32;20108;-55
2024/01/21 00:46:05;;;;;;;3.62;1.90;;;0.60;99.90;;;;;;7339221;32;20174;-55
2024/01/21 00:50:07;;;;;;;4.37;2.10;;;0.70;99.90;;;;;;7338418;32;20111;-54
2024/01/21 00:54:09;;;;;;;6.15;2.40;;;0.80;99.90;;;;;;7338631;32;20145;-55
2024/01/21 00:58:11;;;;;;;3.97;1.85;;;0.80;99.90;;;;;;7338634;32;20294;-55
2024/01/21 01:02:13;;;;;;;4.70;2.60;;;0.80;99.90;;;;;;7342256;32;20211;-55
2024/01/21 01:06:14;;;;;;;5.43;2.80;;;0.80;99.90;;;;;;7339379;32;20410;-54
2024/01/21 01:10:16;;;;;;;5.70;2.75;;;0.60;99.90;;;;;;7338655;32;20099;-55
2024/01/21 01:14:20;;;;;;;5.18;2.45;;;0.70;99.90;;;;;;7334232;32;20258;-55
2024/01/21 01:18:21;;;;;;;7.18;3.25;;;0.60;99.90;;;;;;7338746;32;20142;-55
2024/01/21 01:22:24;;;;;;;7.95;3.22;;;0.50;99.90;;;;;;7345812;32;20660;-55
2024/01/21 01:26:26;;;;;;;5.80;2.80;;;0.50;99.90;;;;;;7339893;32;20179;-55
2024/01/21 01:30:27;;;;;;;6.62;3.42;;;0.60;99.90;;;;;;7337298;32;20210;-55
2024/01/21 01:34:29;;;;;;;7.35;3.12;;;0.60;99.90;;;;;;7324772;32;20161;-55
2024/01/21 01:38:31;;;;;;;7.70;3.17;;;0.60;99.90;;;;;;7329341;32;20559;-55
2024/01/21 01:42:33;;;;;;;8.57;3.50;;;0.70;99.90;;;;;;7335956;32;20214;-53
2024/01/21 01:46:35;;;;;;;7.78;4.05;;;0.60;99.90;;;;;;7343021;32;20133;-55
2024/01/21 01:50:39;;;;;;;7.15;3.55;;;0.50;99.90;;;;;;7340362;32;20178;-54
2024/01/21 01:54:41;;;;;;;7.65;3.80;;;0.60;99.90;;;;;;7343648;32;20108;-55
2024/01/21 01:58:46;;;;;;;7.70;3.87;;;0.60;99.90;;;;;;7327409;32;20242;-55
2024/01/21 02:02:48;;;;;;;9.23;4.47;;;0.60;99.90;;;;;;7335905;32;20126;-55
2024/01/21 02:06:50;;;;;;;11.15;3.62;;;0.60;99.90;;;;;;7342797;32;20103;-55
2024/01/21 02:10:52;;;;;;;11.52;4.53;;;0.60;99.90;;;;;;7344530;32;20118;-55
2024/01/21 02:14:54;;;;;;;7.53;4.45;;;0.50;99.90;;;;;;7342704;32;20237;-55
2024/01/21 02:18:55;;;;;;;8.25;4.80;;;0.60;99.90;;;;;;7340323;32;20116;-55
2024/01/21 02:22:58;;;;;;;9.00;4.72;;;0.50;99.90;;;;;;7346618;32;20270;-55
2024/01/21 02:27:00;;;;;;;10.05;4.70;;;0.50;99.90;;;;;;7348371;32;20612;-55
2024/01/21 02:31:02;;;;;;;7.55;4.32;;;0.50;99.90;;;;;;7343843;32;20103;-55
2024/01/21 02:35:04;;;;;;;7.40;4.25;;;0.50;99.90;;;;;;7341580;32;20129;-55
2024/01/21 02:39:06;;;;;;;11.15;4.72;;;0.70;99.90;;;;;;7342137;32;20123;-55
2024/01/21 02:43:08;;;;;;;8.60;4.07;;;0.70;99.90;;;;;;7336978;32;20139;-55
2024/01/21 02:47:09;;;;;;;7.55;4.70;;;0.70;99.90;;;;;;7343008;32;20175;-55
2024/01/21 02:51:15;;;;;;;8.02;4.18;;;0.60;99.90;;;;;;7331301;32;20111;-55
2024/01/21 02:55:16;;;;;;;8.02;4.50;;;0.70;99.90;;;;;;7353469;32;20314;-55
2024/01/21 02:59:18;;;;;;;7.78;4.35;;;0.60;99.90;;;;;;7343316;32;20261;-55
2024/01/21 03:03:20;;;;;;;7.62;4.40;;;0.60;99.90;;;;;;7342511;32;20107;-55
2024/01/21 03:07:22;;;;;;;9.70;4.45;;;0.60;99.90;;;;;;7346571;32;20111;-55
2024/01/21 03:11:24;;;;;;;9.13;4.75;;;0.70;99.90;;;;;;7338644;32;20675;-55
2024/01/21 03:15:26;;;;;;;8.82;4.30;;;0.60;99.90;;;;;;7326921;32;20223;-55
2024/01/21 03:19:27;;;;;;;8.48;4.70;;;0.60;99.90;;;;;;7349579;32;20163;-55
2024/01/21 03:23:29;;;;;;;8.35;4.97;;;0.50;99.90;;;;;;7338450;32;20111;-54
2024/01/21 03:27:31;;;;;;;8.40;4.28;;;0.50;99.90;;;;;;7343711;32;20209;-55
2024/01/21 03:31:33;;;;;;;9.35;4.78;;;0.30;99.90;;;;;;7343378;32;20176;-55
2024/01/21 03:35:35;;;;;;;15.18;4.60;;;0.40;99.90;;;;;;7344613;32;20438;-55
2024/01/21 03:39:37;;;;;;;7.95;4.03;;;0.40;99.90;;;;;;7339063;32;20912;-55
2024/01/21 03:43:38;;;;;;;7.80;4.32;;;0.40;99.90;;;;;;7344517;32;20140;-55
2024/01/21 03:47:40;;;;;;;8.68;4.45;;;0.40;99.90;;;;;;7347561;32;20222;-55
2024/01/21 03:51:42;;;;;;;6.95;4.05;;;0.50;99.90;;;;;;7344173;32;20103;-55
2024/01/21 03:55:44;;;;;;;8.85;4.15;;;0.40;99.90;;;;;;7337814;32;20201;-55
2024/01/21 03:59:46;;;;;;;6.20;3.12;;;0.40;99.90;;;;;;7342163;32;20103;-55
2024/01/21 04:03:48;;;;;;;7.22;3.87;;;0.40;99.90;;;;;;7340565;32;20141;-56
2024/01/21 04:07:50;;;;;;;7.47;4.15;;;0.40;99.90;;;;;;7342806;32;20134;-54
2024/01/21 04:11:51;;;;;;;5.68;3.25;;;0.60;99.90;;;;;;7344473;32;20245;-55
2024/01/21 04:15:53;;;;;;;8.02;3.87;;;0.60;99.90;;;;;;7322471;32;20350;-54
2024/01/21 04:19:55;;;;;;;11.10;3.30;;;0.60;99.90;;;;;;7327745;32;20131;-55
2024/01/21 04:23:57;;;;;;;7.55;3.75;;;0.70;99.90;;;;;;7340996;32;20248;-55
2024/01/21 04:27:59;;;;;;;7.95;3.62;;;0.70;99.90;;;;;;7342003;32;20131;-55
2024/01/21 04:32:00;;;;;;;7.03;3.95;;;0.80;99.90;;;;;;7342600;32;20910;-54
2024/01/21 04:36:03;;;;;;;6.70;3.58;;;0.80;99.90;;;;;;7338580;32;20111;-55
2024/01/21 04:40:05;;;;;;;6.85;3.75;;;0.80;99.90;;;;;;7342032;32;20418;-54
2024/01/21 04:44:07;;;;;;;6.80;3.22;;;0.80;99.90;;;;;;7328240;32;20187;-55
2024/01/21 04:48:09;;;;;;;7.97;3.60;;;0.80;99.90;;;;;;7339703;32;20482;-55
2024/01/21 04:52:11;;;;;;;8.73;3.50;;;0.80;99.90;;;;;;7331473;32;20514;-55
2024/01/21 04:56:17;;;;;;;7.80;3.50;;;0.80;99.90;;;;;;7326856;32;20462;-55
2024/01/21 05:00:19;;;;;;;7.78;3.50;;;0.80;99.90;;;;;;7341107;32;20185;-54
2024/01/21 05:04:20;;;;;;;5.78;3.20;;;0.90;99.90;;;;;;7340100;32;20334;-55
2024/01/21 05:08:22;;;;;;;7.40;3.50;;;0.90;99.90;;;;;;7334994;32;20164;-55
2024/01/21 05:12:24;;;;;;;5.65;2.85;;;0.90;99.90;;;;;;7342103;32;20234;-55
2024/01/21 05:16:26;;;;;;;6.00;3.40;;;0.90;99.90;;;;;;7340040;32;20139;-55
2024/01/21 05:20:28;;;;;;;8.38;3.78;;;1.00;99.90;;;;;;7341607;32;20150;-55
2024/01/21 05:24:29;;;;;;;6.30;3.25;;;1.00;99.90;;;;;;7343266;32;20340;-55
2024/01/21 05:28:31;;;;;;;7.40;3.60;;;0.90;99.90;;;;;;7340313;32;20592;-55
2024/01/21 05:32:33;;;;;;;7.68;3.90;;;1.00;99.90;;;;;;7341123;32;20562;-55
2024/01/21 05:36:35;;;;;;;6.87;3.80;;;0.90;99.90;;;;;;7343560;32;20548;-55
2024/01/21 05:40:37;;;;;;;8.63;3.42;;;0.80;99.90;;;;;;7339927;32;20107;-56
2024/01/21 05:44:39;;;;;;;7.40;3.42;;;0.80;99.90;;;;;;7343757;32;20233;-55
2024/01/21 05:48:40;;;;;;;8.40;3.70;;;0.80;99.90;;;;;;7339049;32;20123;-55
2024/01/21 05:52:42;;;;;;;9.70;3.83;;;0.80;99.90;;;;;;7327327;32;20217;-55
2024/01/21 05:56:44;;;;;;;4.90;3.12;;;0.80;99.90;;;;;;7339761;32;20191;-55
2024/01/21 06:00:46;;;;;;;7.18;3.42;;;0.70;99.90;;;;;;7338946;32;20528;-55
2024/01/21 06:04:50;;;;;;;6.93;3.60;;;0.70;99.90;;;;;;7336402;32;20472;-55
2024/01/21 06:08:51;;;;;;;5.18;2.92;;;0.80;99.90;;;;;;7333053;32;20339;-55
2024/01/21 06:12:53;;;;;;;7.97;3.45;;;0.80;99.90;;;;;;7321962;32;20108;-56
2024/01/21 06:16:55;;;;;;;6.55;3.35;;;0.80;99.90;;;;;;7332826;32;20130;-55
2024/01/21 06:20:57;;;;;;;7.07;3.37;;;0.80;99.90;;;;;;7332617;32;20245;-55
2024/01/21 06:24:59;;;;;;;8.30;3.75;;;0.90;99.90;;;;;;7334289;32;20198;-54
2024/01/21 06:29:00;;;;;;;7.95;3.72;;;0.90;99.90;;;;;;7339041;32;20163;-54
2024/01/21 06:33:02;;;;;;;7.30;3.50;;;0.90;99.90;;;;;;7337268;32;20669;-55
2024/01/21 06:37:05;;;;;;;7.85;3.47;;;0.80;99.90;;;;;;7340669;32;20195;-55
2024/01/21 06:41:06;;;;;;;6.97;3.65;;;0.80;99.90;;;;;;7345072;32;20283;-55
2024/01/21 06:45:11;;;;;;;11.20;4.32;;;0.90;99.90;;;;;;7332997;32;20261;-53
2024/01/21 06:49:13;;;;;;;7.43;3.60;;;0.90;99.90;;;;;;7338320;32;20170;-55
2024/01/21 06:53:15;;;;;;;7.68;3.62;;;0.80;99.90;;;;;;7336467;32;20107;-55
2024/01/21 06:57:17;;;;;;;7.28;3.85;;;0.80;99.90;;;;;;7338510;32;20172;-54
2024/01/21 07:01:19;;;;;;;7.60;3.95;;;0.90;99.90;;;;;;7335966;32;20302;-54
2024/01/21 07:05:21;;;;;;;7.65;3.65;;;0.90;99.90;;;;;;7347184;32;20356;-54
2024/01/21 07:09:24;;;;;;;7.87;3.65;;;0.90;99.90;;;;;;7345202;32;20603;-54
2024/01/21 07:13:26;;;;;;;7.78;4.22;;;0.80;99.90;;;;;;7343536;32;20248;-54
2024/01/21 07:17:28;;;;;;;7.47;4.32;;;0.80;99.90;;;;;;7343265;32;20682;-55
2024/01/21 07:21:30;;;;;;;9.57;4.40;;;0.90;99.90;;;;;;7328374;32;20377;-55
2024/01/21 07:25:32;;;;;;;9.68;4.78;;;0.80;99.90;;;;;;7322601;32;20103;-54
2024/01/21 07:29:34;;;;;;;9.50;4.55;;;0.80;99.90;;;;;;7341802;32;20266;-55
2024/01/21 07:33:36;;;;;;;9.63;4.50;;;0.80;99.90;;;;;;7340944;32;20183;-56
2024/01/21 07:37:38;;;;;;;9.00;4.47;;;0.80;99.90;;;;;;7347514;32;20677;-56
2024/01/21 07:41:39;;;;;;;9.90;4.65;;;0.80;99.90;;;;;;7345543;32;20941;-56
2024/01/21 07:45:41;;;;;;;10.02;5.20;;;0.80;99.90;;;;;;7345920;32;20643;-58
2024/01/21 07:49:43;;;;;;;9.60;4.95;;;0.90;99.90;;;;;;7331655;32;20103;-57
2024/01/21 07:53:45;;;;;;;9.35;4.30;;;0.90;99.90;;;;;;7322716;32;20185;-57
2024/01/21 07:57:47;;;;;;;9.18;5.00;;;0.80;99.90;;;;;;7341908;32;20108;-57
2024/01/21 08:01:49;;;;;;;11.82;4.60;;;0.90;99.90;;;;;;7342296;32;20115;-57
2024/01/21 08:05:52;;;;;;;11.77;5.00;;;0.90;99.90;;;;;;7340262;32;20191;-56
2024/01/21 08:09:54;;;;;;;9.98;5.12;;;0.90;99.90;;;;;;7341546;32;20364;-57
2024/01/21 08:13:56;;;;;;;9.50;5.12;;;0.90;99.90;;;;;;7338607;32;20899;-56
2024/01/21 08:17:57;;;;;;;10.70;4.65;;;1.00;99.90;;;;;;7340816;32;20150;-57
2024/01/21 08:21:59;;;;;;;9.15;4.62;;;1.00;99.90;;;;;;7332586;32;20493;-56
2024/01/21 08:26:05;;;;;;;9.85;5.12;;;1.00;99.90;;;;;;7342860;32;20564;-57
2024/01/21 08:30:08;;;;;;;9.52;5.12;;;1.10;99.90;;;;;;7338432;32;20195;-57
2024/01/21 08:34:10;;;;;;;9.63;5.10;;;1.00;99.90;;;;;;7341423;32;20215;-57
2024/01/21 08:38:12;;;;;;;8.45;4.80;;;1.10;99.90;;;;;;7340092;32;20153;-57
2024/01/21 08:42:14;;;;;;;10.35;4.87;;;1.10;99.90;;;;;;7336930;32;20607;-58
2024/01/21 08:46:16;;;;;;;10.20;5.15;;;1.20;99.90;;;;;;7343413;32;20214;-57
2024/01/21 08:50:18;;;;;;;8.88;5.05;;;1.20;99.90;;;;;;7337595;32;20325;-59
2024/01/21 08:54:19;;;;;;;9.85;4.95;;;1.20;99.90;;;;;;7342598;32;20103;-58
2024/01/21 08:58:21;;;;;;;10.02;5.00;;;1.30;99.90;;;;;;7339546;32;20157;-58
2024/01/21 09:02:23;;;;;;;11.12;5.32;;;1.30;99.90;;;;;;7337680;32;20538;-58
2024/01/21 09:06:25;;;;;;;7.60;4.70;;;1.40;99.90;;;;;;7344223;32;20160;-58
2024/01/21 09:10:27;;;;;;;10.52;5.60;;;1.60;99.90;;;;;;7340305;32;20253;-57
2024/01/21 09:14:29;;;;;;;13.15;5.82;;;1.70;99.90;;;;;;7343987;32;20243;-57
2024/01/21 09:18:31;;;;;;;12.37;6.10;;;1.90;99.90;;;;;;7343092;32;20162;-54
2024/01/21 09:22:33;;;;;;;8.32;4.45;;;1.90;99.90;;;;;;7341742;32;20115;-57
2024/01/21 09:26:35;;;;;;;10.23;5.20;;;1.80;99.90;;;;;;7338113;32;21006;-58
2024/01/21 09:30:36;;;;;;;9.57;5.65;;;1.70;99.90;;;;;;7338732;32;20250;-58
2024/01/21 09:34:43;;;;;;;10.85;6.12;;;1.70;99.90;;;;;;7339598;32;20099;-57
2024/01/21 09:38:45;;;;;;;12.25;6.10;;;1.70;99.90;;;;;;7341677;32;20249;-57
2024/01/21 09:42:47;;;;;;;11.32;6.18;;;1.70;99.90;;;;;;7337202;32;20168;-63
2024/01/21 09:46:53;;;;;;;12.50;6.62;;;1.70;99.90;;;;;;7331359;32;20178;-63
2024/01/21 09:50:56;;;;;;;11.55;6.10;;;2.20;99.90;;;;;;7337483;32;20190;-58
2024/01/21 09:54:58;;;;;;;12.10;6.35;;;2.00;99.90;;;;;;7343033;32;20176;-56
2024/01/21 09:59:03;;;;;;;12.52;6.12;;;1.90;99.90;;;;;;7337190;32;20572;-57
2024/01/21 10:03:05;;;;;;;10.68;5.80;;;1.90;99.90;;;;;;7334306;32;20319;-57
2024/01/21 10:07:08;;;;;;;14.60;6.50;;;2.00;99.90;;;;;;7340395;32;20111;-57
2024/01/21 10:11:10;;;;;;;10.73;5.80;;;2.20;99.90;;;;;;7341212;32;20321;-57
2024/01/21 10:15:13;;;;;;;11.10;6.40;;;2.20;99.90;;;;;;7338021;32;20173;-56
2024/01/21 10:19:25;;;;;;;14.70;6.47;;;2.20;99.90;;;;;;7337719;32;20230;-56
2024/01/21 10:23:27;;;;;;;9.27;5.85;;;2.20;99.90;;;;;;7340500;32;20214;-57
2024/01/21 10:27:28;;;;;;;12.65;5.82;;;2.20;99.90;;;;;;7333720;32;20343;-56
2024/01/21 10:31:33;;;;;;;10.20;6.30;;;2.20;99.90;;;;;;7344847;32;20104;-56
2024/01/21 10:35:35;;;;;;;11.20;5.65;;;2.20;99.90;;;;;;7347456;32;20174;-57
2024/01/21 10:39:37;;;;;;;11.48;6.18;;;2.30;99.90;;;;;;7344934;32;20192;-56
2024/01/21 10:43:40;;;;;;;12.80;5.87;;;2.30;99.90;;;;;;7339609;32;20111;-57
2024/01/21 10:47:43;;;;;;;16.58;6.32;;;2.30;99.90;;;;;;7339154;32;20212;-56
2024/01/21 10:51:46;;;;;;;11.75;6.35;;;2.30;99.90;;;;;;7340083;32;20175;-56
2024/01/21 10:55:50;;;;;;;9.90;6.45;;;2.40;99.90;;;;;;7345235;32;20650;-58
2024/01/21 10:59:53;;;;;;;13.40;6.65;;;2.50;99.90;;;;;;7342074;32;20112;-57
2024/01/21 11:04:07;;;;;;;11.52;6.22;;;2.50;99.90;;;;;;7341322;32;20212;-56
2024/01/21 11:08:09;;;;;;;12.55;6.68;;;2.50;99.90;;;;;;7336139;32;20217;-57
2024/01/21 11:12:12;;;;;;;12.27;6.45;;;2.50;99.90;;;;;;7339093;32;20174;-58
2024/01/21 11:16:26;;;;;;;14.35;6.72;;;2.50;99.90;;;;;;7341741;32;20524;-57
2024/01/21 11:20:29;;;;;;;15.80;6.97;;;2.50;99.90;;;;;;7339064;32;20521;-58
2024/01/21 11:24:30;;;;;;;13.80;6.37;;;2.50;99.90;;;;;;7339260;32;20099;-57
2024/01/21 11:28:33;;;;;;;13.27;7.20;;;2.50;99.90;;;;;;7334713;32;20336;-57
2024/01/21 11:32:35;;;;;;;13.38;6.53;;;2.50;99.90;;;;;;7339666;32;20145;-58
2024/01/21 11:36:42;;;;;;;15.00;7.45;;;2.40;99.90;;;;;;7338202;32;20238;-59
2024/01/21 11:40:44;;;;;;;14.23;7.05;;;2.40;99.90;;;;;;7336866;32;20210;-58
2024/01/21 11:44:46;;;;;;;12.20;6.62;;;2.50;99.90;;;;;;7338820;32;20468;-58
2024/01/21 11:48:48;;;;;;;11.82;7.07;;;2.50;99.90;;;;;;7340718;32;20213;-58
2024/01/21 11:52:49;;;;;;;16.85;7.40;;;2.50;99.90;;;;;;7342305;32;20107;-57
2024/01/21 11:56:54;;;;;;;12.75;6.80;;;2.50;99.90;;;;;;7334797;32;20512;-58
2024/01/21 12:00:56;;;;;;;12.02;6.28;;;2.60;99.90;;;;;;7332692;32;20325;-57
2024/01/21 12:04:59;;;;;;;14.95;7.35;;;2.60;99.90;;;;;;7337254;32;20107;-58
2024/01/21 12:09:01;;;;;;;12.10;7.50;;;2.80;99.90;;;;;;7339404;32;20250;-58
2024/01/21 12:13:06;;;;;;;16.55;6.68;;;2.90;99.90;;;;;;7332776;32;20145;-57
2024/01/21 12:17:08;;;;;;;14.82;7.20;;;3.00;99.90;;;;;;7338920;32;20664;-58
2024/01/21 12:21:14;;;;;;;12.32;6.12;;;3.00;99.90;;;;;;7335245;32;20181;-58
2024/01/21 12:25:17;;;;;;;13.13;7.20;;;3.10;99.90;;;;;;7338798;32;20202;-57
2024/01/21 12:29:20;;;;;;;11.40;6.57;;;3.10;99.90;;;;;;7339147;32;20472;-57
2024/01/21 12:33:21;;;;;;;13.70;7.30;;;3.20;99.90;;;;;;7337481;32;20667;-58
2024/01/21 12:37:24;;;;;;;11.75;6.68;;;3.30;99.90;;;;;;7332360;32;20304;-56
2024/01/21 12:41:27;;;;;;;10.73;6.85;;;3.30;99.90;;;;;;7343982;32;20264;-56
2024/01/21 12:45:28;;;;;;;12.00;5.97;;;3.40;99.90;;;;;;7339321;32;20711;-57
2024/01/21 12:49:31;;;;;;;14.80;6.87;;;3.40;99.90;;;;;;7337067;32;20724;-57
2024/01/21 12:53:33;;;;;;;10.30;6.55;;;3.30;99.90;;;;;;7338639;32;20542;-57
2024/01/21 12:57:35;;;;;;;11.70;5.97;;;3.40;99.90;;;;;;7333374;32;20263;-59
2024/01/21 13:01:37;;;;;;;16.20;6.60;;;3.50;99.90;;;;;;7336954;32;20202;-58
2024/01/21 13:05:38;;;;;;;10.90;5.97;;;3.60;99.90;;;;;;7337503;32;20155;-59
2024/01/21 13:09:40;;;;;;;10.50;6.47;;;3.50;99.90;;;;;;7341461;32;20230;-59
2024/01/21 13:13:42;;;;;;;11.50;6.80;;;3.60;99.90;;;;;;7342089;32;20703;-57
2024/01/21 13:17:44;;;;;;;13.95;6.93;;;3.60;99.90;;;;;;7340011;32;20104;-58
2024/01/21 13:21:46;;;;;;;12.40;6.65;;;3.60;99.90;;;;;;7330977;32;20675;-57
2024/01/21 13:25:48;;;;;;;10.18;6.03;;;3.60;99.90;;;;;;7341360;32;20190;-58
2024/01/21 13:34:10;;;;;;;9.68;6.12;;;3.60;99.90;;;;;;7338292;32;20160;-58
2024/01/21 13:38:15;;;;;;;12.05;6.62;;;3.60;99.90;;;;;;7339354;32;20129;-59
2024/01/21 13:42:17;;;;;;;9.93;5.45;;;3.60;99.90;;;;;;7340408;32;20099;-58
2024/01/21 13:46:19;;;;;;;15.35;6.12;;;3.60;99.90;;;;;;7340101;32;20525;-58
2024/01/21 13:50:21;;;;;;;12.10;6.30;;;3.70;99.90;;;;;;7335987;32;20148;-57
2024/01/21 13:54:22;;;;;;;12.90;6.72;;;3.60;99.90;;;;;;7337367;32;20740;-56
2024/01/21 13:58:24;;;;;;;12.30;6.60;;;3.70;99.90;;;;;;7339700;32;20186;-57
2024/01/21 14:02:26;;;;;;;12.02;6.28;;;3.70;99.90;;;;;;7331782;32;20274;-57
2024/01/21 14:06:28;;;;;;;12.75;5.75;;;3.80;99.90;;;;;;7338792;32;20300;-56
2024/01/21 14:10:30;;;;;;;10.30;5.62;;;3.80;99.90;;;;;;7348131;32;20640;-58
2024/01/21 14:14:32;;;;;;;11.32;6.05;;;3.90;99.90;;;;;;7340144;32;20592;-57
2024/01/21 14:18:34;;;;;;;10.73;5.90;;;3.90;99.90;;;;;;7341400;32;20159;-59
2024/01/21 14:22:41;;;;;;;9.90;5.80;;;3.80;99.90;;;;;;7342581;32;20310;-59
2024/01/21 14:26:45;;;;;;;9.50;5.65;;;3.80;99.90;;;;;;7349861;32;20707;-58
2024/01/21 14:30:48;;;;;;;9.45;5.90;;;3.80;99.90;;;;;;7343445;32;20123;-58
2024/01/21 14:34:50;;;;;;;8.40;5.82;;;3.80;99.90;;;;;;7343838;32;20255;-57
2024/01/21 14:38:51;;;;;;;11.85;5.55;;;3.80;99.90;;;;;;7338459;32;20287;-59
2024/01/21 14:42:53;;;;;;;11.35;5.93;;;3.90;99.90;;;;;;7332774;32;20156;-58
2024/01/21 14:46:57;;;;;;;8.73;5.82;;;3.80;99.90;;;;;;7343496;32;20217;-58
2024/01/21 14:50:58;;;;;;;14.75;5.72;;;3.90;99.90;;;;;;7348781;32;20242;-58
2024/01/21 14:55:01;;;;;;;10.07;5.78;;;3.80;99.90;;;;;;7346267;32;20214;-57
2024/01/21 14:59:03;;;;;;;8.90;5.62;;;3.90;99.90;;;;;;7347042;32;20115;-59
2024/01/21 15:03:05;;;;;;;12.23;5.93;;;3.90;99.90;;;;;;7336527;32;20532;-57
2024/01/21 15:07:07;;;;;;;10.65;6.10;;;3.90;99.90;;;;;;7347256;32;20537;-57
2024/01/21 15:11:09;;;;;;;8.18;5.25;;;3.90;99.90;;;;;;7343712;32;20160;-58
2024/01/21 15:15:17;;;;;;;10.85;6.07;;;3.80;99.90;;;;;;7340768;32;20222;-58
2024/01/21 15:19:19;;;;;;;9.35;6.30;;;3.90;99.90;;;;;;7340787;32;20249;-58
2024/01/21 15:23:20;;;;;;;13.10;6.45;;;3.90;99.90;;;;;;7343744;32;20201;-58
2024/01/21 15:27:23;;;;;;;11.35;6.35;;;3.90;99.90;;;;;;7343294;32;20130;-58
2024/01/21 15:31:25;;;;;;;10.50;6.20;;;3.90;99.90;;;;;;7342535;32;20106;-58
2024/01/21 15:35:27;;;;;;;10.65;6.05;;;3.90;99.90;;;;;;7344902;32;20127;-57
2024/01/21 15:39:29;;;;;;;13.23;7.20;;;3.90;99.90;;;;;;7348594;32;20651;-58
2024/01/21 15:43:31;;;;;;;14.35;6.10;;;3.80;99.90;;;;;;7341488;32;20241;-58
2024/01/21 15:47:32;;;;;;;11.35;6.40;;;3.80;99.90;;;;;;7341453;32;20483;-58
2024/01/21 15:51:34;;;;;;;9.57;6.40;;;3.80;99.90;;;;;;7343706;32;20190;-57
2024/01/21 15:55:38;;;;;;;10.25;6.07;;;3.80;99.90;;;;;;7343570;32;20466;-57
2024/01/21 15:59:41;;;;;;;11.43;6.50;;;3.80;99.90;;;;;;7347890;32;20111;-56
2024/01/21 16:03:43;;;;;;;10.40;5.57;;;3.70;99.90;;;;;;7344209;32;20209;-57
2024/01/21 16:07:45;;;;;;;11.20;6.72;;;3.60;99.90;;;;;;7347803;32;20118;-57
2024/01/21 16:11:47;;;;;;;10.38;6.60;;;3.50;99.90;;;;;;7344317;32;20182;-57
2024/01/21 16:15:49;;;;;;;11.65;7.10;;;3.40;99.90;;;;;;7345112;32;20343;-55
2024/01/21 16:19:55;;;;;;;10.80;6.32;;;3.40;99.90;;;;;;7344704;32;20579;-55
2024/01/21 16:23:57;;;;;;;12.27;6.97;;;3.30;99.90;;;;;;7343071;32;20628;-58
2024/01/21 16:27:59;;;;;;;12.50;6.85;;;3.30;99.90;;;;;;7344323;32;20100;-57
2024/01/21 16:32:01;;;;;;;11.50;6.32;;;3.20;99.90;;;;;;7350745;32;20517;-56
2024/01/21 16:36:03;;;;;;;10.88;6.37;;;3.20;99.90;;;;;;7346762;32;20363;-57
2024/01/21 16:40:06;;;;;;;11.38;6.40;;;3.20;99.90;;;;;;7348630;32;20131;-56
2024/01/21 16:44:10;;;;;;;10.63;5.90;;;3.20;99.90;;;;;;7346267;32;20128;-57
2024/01/21 16:48:12;;;;;;;13.98;6.87;;;3.30;99.90;;;;;;7343854;32;20119;-56
2024/01/21 16:52:26;;;;;;;12.45;6.45;;;3.30;99.90;;;;;;7339956;32;20562;-56
2024/01/21 16:56:33;;;;;;;10.40;6.22;;;3.40;99.90;;;;;;7344447;32;20137;-57
2024/01/21 17:00:38;;;;;;;9.82;6.20;;;3.30;99.90;;;;;;7339862;32;20216;-57
2024/01/21 17:04:40;;;;;;;10.40;6.47;;;3.40;99.90;;;;;;7345841;32;20234;-56
2024/01/21 17:08:42;;;;;;;10.82;5.85;;;3.40;99.90;;;;;;7341620;32;20481;-56
2024/01/21 17:12:44;;;;;;;10.98;5.32;;;3.50;99.90;;;;;;7337347;32;20130;-56
2024/01/21 17:16:46;;;;;;;10.07;5.90;;;3.50;99.90;;;;;;7341188;32;20513;-57
2024/01/21 17:20:50;;;;;;;12.30;5.78;;;3.50;99.90;;;;;;7341106;32;20172;-56
2024/01/21 17:24:52;;;;;;;13.45;6.45;;;3.50;99.90;;;;;;7343550;32;20100;-56
2024/01/21 17:28:54;;;;;;;14.80;6.20;;;3.50;99.90;;;;;;7340995;32;20107;-56
2024/01/21 17:32:55;;;;;;;11.55;6.70;;;3.50;99.90;;;;;;7335259;32;20241;-56
2024/01/21 17:36:57;;;;;;;11.65;6.10;;;3.50;99.90;;;;;;7345079;32;20103;-56
2024/01/21 17:40:59;;;;;;;11.05;5.70;;;3.50;99.90;;;;;;7340679;32;20218;-57
2024/01/21 17:45:02;;;;;;;11.77;6.20;;;3.50;99.90;;;;;;7343980;32;20122;-57
2024/01/21 17:49:04;;;;;;;10.63;6.15;;;3.50;99.90;;;;;;7344118;32;20162;-57
2024/01/21 17:53:06;;;;;;;10.02;5.22;;;3.50;99.90;;;;;;7348361;32;20129;-58
2024/01/21 17:57:08;;;;;;;10.82;6.25;;;3.50;99.90;;;;;;7341254;32;20198;-57
2024/01/21 18:01:10;;;;;;;10.88;5.97;;;3.50;99.90;;;;;;7347419;32;20169;-58
2024/01/21 18:05:12;;;;;;;10.13;5.87;;;3.60;99.90;;;;;;7346386;32;20196;-58
2024/01/21 18:09:16;;;;;;;9.80;5.60;;;3.60;99.90;;;;;;7343106;32;20099;-58
2024/01/21 18:13:18;;;;;;;11.55;5.60;;;3.50;99.90;;;;;;7342578;32;20099;-58
2024/01/21 18:17:19;;;;;;;12.15;5.90;;;3.50;99.90;;;;;;7344744;32;20164;-57
2024/01/21 18:21:21;;;;;;;11.12;6.22;;;3.50;99.90;;;;;;7328519;32;20156;-56
2024/01/21 18:25:24;;;;;;;11.10;6.18;;;3.50;99.90;;;;;;7343894;32;20249;-56
2024/01/21 18:29:26;;;;;;;11.43;5.57;;;3.50;99.90;;;;;;7336884;32;20630;-57
2024/01/21 18:33:36;;;;;;;11.65;6.15;;;3.50;99.90;;;;;;7343999;32;20647;-57
2024/01/21 18:37:39;;;;;;;12.75;6.10;;;3.50;99.90;;;;;;7342835;32;20187;-58
2024/01/21 18:41:40;;;;;;;11.48;5.07;;;3.60;99.90;;;;;;7337952;32;20222;-63
2024/01/21 18:45:42;;;;;;;11.35;5.97;;;4.10;99.90;;;;;;7343555;32;20103;-62
2024/01/21 18:49:44;;;;;;;9.15;5.40;;;4.50;99.90;;;;;;7341087;32;20501;-63
2024/01/21 18:53:46;;;;;;;10.50;5.72;;;4.30;99.90;;;;;;7338406;32;20106;-56
2024/01/21 18:57:48;;;;;;;9.98;5.35;;;4.20;99.90;;;;;;7348626;32;20149;-58
2024/01/21 19:01:50;;;;;;;8.70;4.93;;;4.00;99.90;;;;;;7348648;32;20212;-57
2024/01/21 19:05:52;;;;;;;10.27;4.97;;;3.90;99.90;;;;;;7343812;32;20173;-55
2024/01/21 19:09:54;;;;;;;13.30;5.93;;;3.80;99.90;;;;;;7344203;32;20500;-56
2024/01/21 19:13:56;;;;;;;12.35;4.97;;;3.90;99.90;;;;;;7341351;32;20153;-57
2024/01/21 19:17:58;;;;;;;8.35;4.28;;;3.90;99.90;;;;;;7343112;32;20176;-56
2024/01/21 19:22:00;;;;;;;9.70;4.62;;;3.90;99.90;;;;;;7344614;32;20112;-57
2024/01/21 19:26:05;;;;;;;8.98;4.82;;;3.90;99.90;;;;;;7341235;32;20579;-57
2024/01/21 19:30:08;;;;;;;7.10;4.22;;;3.90;99.90;;;;;;7342558;32;20190;-57
2024/01/21 19:34:11;;;;;;;7.25;4.43;;;3.90;99.90;;;;;;7337860;32;22474;-55
2024/01/21 19:38:13;;;;;;;10.25;4.72;;;4.00;99.90;;;;;;7339442;32;20208;-55
2024/01/21 19:42:15;;;;;;;11.48;4.95;;;3.90;99.90;;;;;;7341183;32;20210;-55
2024/01/21 19:46:17;;;;;;;8.77;4.05;;;4.00;99.90;;;;;;7337284;32;20120;-57
2024/01/21 19:50:19;;;;;;;7.78;3.85;;;4.00;99.90;;;;;;7341162;32;20666;-56
2024/01/21 19:54:20;;;;;;;8.43;4.62;;;4.00;99.90;;;;;;7336758;32;20207;-56
2024/01/21 19:58:22;;;;;;;9.30;3.97;;;4.00;99.90;;;;;;7338370;32;20125;-55
2024/01/21 20:02:24;;;;;;;8.27;4.12;;;4.00;99.90;;;;;;7344584;32;20126;-56
2024/01/21 20:06:26;;;;;;;7.53;3.90;;;4.00;99.90;;;;;;7347579;32;20588;-57
2024/01/21 20:10:27;;;;;;;7.45;3.97;;;3.90;99.90;;;;;;7346084;32;20146;-57
2024/01/21 20:14:29;;;;;;;12.63;3.95;;;3.90;99.90;;;;;;7338276;32;20126;-57
2024/01/21 20:18:31;;;;;;;10.80;3.83;;;3.90;99.90;;;;;;7341331;32;20488;-55
2024/01/21 20:22:33;;;;;;;8.18;3.55;;;4.00;99.90;;;;;;7341101;32;20133;-58
2024/01/21 20:26:35;;;;;;;8.55;3.53;;;4.00;99.90;;;;;;7340512;32;20221;-57
2024/01/21 20:30:36;;;;;;;5.45;3.70;;;4.00;99.90;;;;;;7340150;32;20190;-56
2024/01/21 20:34:38;;;;;;;6.50;3.50;;;3.90;99.90;;;;;;7338329;32;20256;-56
2024/01/21 20:38:40;;;;;;;6.93;3.50;;;4.00;99.90;;;;;;7339631;32;20278;-57
2024/01/21 20:42:43;;;;;;;4.80;2.47;;;4.10;99.90;;;;;;7336161;32;20150;-57
2024/01/21 20:46:45;;;;;;;6.70;3.05;;;4.10;99.90;;;;;;7340600;32;20149;-56
2024/01/21 20:50:46;;;;;;;8.02;3.62;;;4.10;99.90;;;;;;7334863;32;20166;-57
2024/01/21 20:54:48;;;;;;;8.52;3.17;;;4.10;99.90;;;;;;7338485;32;20210;-57
2024/01/21 20:58:51;;;;;;;9.10;3.80;;;4.20;99.90;;;;;;7336676;32;20115;-55
2024/01/21 21:02:52;;;;;;;6.22;3.37;;;4.20;99.90;;;;;;7344959;32;20214;-55
2024/01/21 21:06:54;;;;;;;6.93;3.22;;;4.10;99.90;;;;;;7341281;32;20128;-56
2024/01/21 21:10:56;;;;;;;8.52;3.62;;;4.20;99.90;;;;;;7343027;32;20206;-56
2024/01/21 21:14:58;;;;;;;5.03;2.58;;;4.20;99.90;;;;;;7335113;32;20560;-56